Time;durP1;ratioP1;P1;durP2;ratioP2;P2;SDS_P1;SDS_P2;PMS_P1;PMS_P2;Temp;Humidity;BMP_temperature;BMP_pressure;BME280_temperature;BME280_humidity;BME280_pressure;Samples;Min_cycle;Max_cycle;Signal;HPM_P1;HPM_P2
2021/12/15 00:02:09;;;;;;;53.80;25.13;;;;;;;9.64;96.78;102831.03;5035021;28;20025;-67
2021/12/15 00:04:35;;;;;;;53.05;23.48;;;;;;;9.60;96.83;102827.06;5053128;28;20025;-68
2021/12/15 00:07:00;;;;;;;53.33;25.33;;;;;;;9.65;96.77;102832.66;5052633;28;20036;-67
2021/12/15 00:09:27;;;;;;;52.70;24.25;;;;;;;9.60;96.87;102829.66;5034913;28;20130;-67
2021/12/15 00:11:52;;;;;;;57.72;25.63;;;;;;;9.60;97.08;102821.91;5052821;28;20075;-66
2021/12/15 00:14:19;;;;;;;55.30;24.77;;;;;;;9.55;96.54;102821.47;5052825;28;20025;-67
2021/12/15 00:16:46;;;;;;;58.83;26.52;;;;;;;9.63;97.07;102826.81;5034927;28;20131;-67
2021/12/15 00:19:11;;;;;;;56.90;25.98;;;;;;;9.63;96.58;102821.66;5034814;28;20052;-67
2021/12/15 00:21:37;;;;;;;56.10;25.50;;;;;;;9.58;96.58;102819.47;5052625;28;20128;-67
2021/12/15 00:24:04;;;;;;;56.67;25.27;;;;;;;9.59;96.56;102815.94;5056217;28;20525;-66
2021/12/15 00:26:30;;;;;;;59.92;26.15;;;;;;;9.65;96.22;102818.00;5056544;28;20486;-67
2021/12/15 00:28:57;;;;;;;56.42;25.80;;;;;;;9.58;96.22;102819.47;5056234;28;20025;-66
2021/12/15 00:31:23;;;;;;;54.85;26.17;;;;;;;9.65;96.42;102817.19;5038270;28;20017;-67
2021/12/15 00:33:49;;;;;;;54.95;25.67;;;;;;;9.56;96.09;102817.97;5038319;28;20029;-67
2021/12/15 00:36:15;;;;;;;53.72;26.88;;;;;;;9.52;96.57;102819.16;5056068;28;20028;-67
2021/12/15 00:38:42;;;;;;;58.03;26.40;;;;;;;9.46;96.39;102820.50;5038170;28;20033;-67
2021/12/15 00:41:07;;;;;;;56.35;26.48;;;;;;;9.54;96.83;102814.69;5038143;28;20021;-68
2021/12/15 00:43:34;;;;;;;57.75;26.30;;;;;;;9.57;96.26;102820.41;5055936;28;20491;-66
2021/12/15 00:46:00;;;;;;;67.18;27.00;;;;;;;9.62;96.16;102825.19;5055810;28;20029;-68
2021/12/15 00:48:26;;;;;;;55.00;27.38;;;;;;;9.56;96.43;102825.72;5037940;28;20027;-66
2021/12/15 00:50:52;;;;;;;61.70;28.25;;;;;;;9.65;95.99;102827.50;5055840;28;20017;-67
2021/12/15 00:53:17;;;;;;;56.97;26.80;;;;;;;9.57;95.65;102828.16;5056309;28;20025;-67
2021/12/15 00:55:43;;;;;;;56.22;28.50;;;;;;;9.58;96.06;102837.53;5037756;28;20029;-67
2021/12/15 00:58:10;;;;;;;59.22;29.02;;;;;;;9.60;95.59;102825.31;5055639;28;20032;-67
2021/12/15 01:00:42;;;;;;;63.13;29.52;;;;;;;9.66;95.65;102823.97;5055484;28;20031;-68
2021/12/15 01:03:09;;;;;;;58.38;28.08;;;;;;;9.57;95.71;102824.75;5055563;28;20433;-67
2021/12/15 01:05:39;;;;;;;62.72;29.30;;;;;;;9.51;95.95;102831.25;5037645;28;20036;-67
2021/12/15 01:08:07;;;;;;;61.47;29.63;;;;;;;9.48;96.06;102832.31;5055557;28;20194;-67
2021/12/15 01:21:32;;;;;;;63.13;30.02;;;;;;;9.51;95.91;102833.84;5055353;28;20102;-67
2021/12/15 01:23:57;;;;;;;64.65;29.48;;;;;;;9.49;95.31;102817.66;5037381;28;20115;-68
2021/12/15 01:26:23;;;;;;;61.60;30.13;;;;;;;9.53;95.76;102824.19;5055074;28;20032;-66
2021/12/15 01:28:48;;;;;;;62.28;30.45;;;;;;;9.47;95.93;102825.53;5055108;28;20422;-67
2021/12/15 01:31:14;;;;;;;56.72;29.17;;;;;;;9.46;95.56;102831.63;5037194;28;20025;-68
2021/12/15 01:33:40;;;;;;;62.20;29.15;;;;;;;9.53;95.46;102831.94;5036073;28;20082;-68
2021/12/15 01:36:07;;;;;;;59.05;29.13;;;;;;;9.49;95.16;102833.97;5037127;28;20032;-68
2021/12/15 01:38:34;;;;;;;55.97;29.48;;;;;;;9.49;95.41;102835.72;5037060;28;20024;-68
2021/12/15 01:41:00;;;;;;;60.75;30.08;;;;;;;9.48;95.12;102829.75;5054886;28;20053;-68
2021/12/15 01:43:51;;;;;;;56.50;30.27;;;;;;;9.52;95.21;102832.06;5055448;28;20436;-67
2021/12/15 01:49:14;;;;;;;62.97;29.73;;;;;;;9.49;95.41;102838.28;5055690;28;20059;-66
2021/12/15 01:51:42;;;;;;;58.40;29.80;;;;;;;9.53;95.34;102829.38;5054761;28;20036;-67
2021/12/15 01:54:08;;;;;;;54.40;28.58;;;;;;;9.45;95.67;102831.78;5054530;28;20021;-66
2021/12/15 01:56:34;;;;;;;60.05;31.40;;;;;;;9.45;95.44;102839.50;5054716;28;20460;-67
2021/12/15 01:59:00;;;;;;;63.38;30.35;;;;;;;9.51;95.54;102839.00;5036831;28;20028;-68
2021/12/15 02:01:26;;;;;;;58.53;29.73;;;;;;;9.50;95.51;102834.78;5054528;28;20025;-68
2021/12/15 02:03:51;;;;;;;58.78;29.23;;;;;;;9.54;95.18;102849.06;5036913;28;20024;-67
2021/12/15 02:06:17;;;;;;;54.80;29.60;;;;;;;9.47;94.77;102843.59;5054799;28;20021;-66
2021/12/15 02:08:43;;;;;;;63.10;31.35;;;;;;;9.43;95.50;102846.56;5054547;28;20107;-66
2021/12/15 02:11:10;;;;;;;61.90;30.80;;;;;;;9.43;95.66;102849.13;5036367;28;20071;-67
2021/12/15 02:13:35;;;;;;;61.53;29.63;;;;;;;9.53;95.33;102850.00;5054281;28;20017;-67
2021/12/15 02:16:03;;;;;;;60.30;30.83;;;;;;;9.54;94.96;102849.06;5054566;28;20023;-67
2021/12/15 02:18:33;;;;;;;59.50;30.13;;;;;;;9.38;95.71;102857.28;5054226;28;20440;-67
2021/12/15 02:21:13;;;;;;;65.82;30.75;;;;;;;9.45;96.01;102853.22;5036156;28;20124;-67
2021/12/15 02:23:47;;;;;;;60.90;29.52;;;;;;;9.54;95.47;102861.97;5054683;28;20029;-66
2021/12/15 02:26:21;;;;;;;59.97;29.30;;;;;;;9.49;95.50;102851.19;5054293;28;20082;-67
2021/12/15 02:28:50;;;;;;;55.72;28.85;;;;;;;9.42;95.50;102848.31;5036626;28;20025;-67
2021/12/15 02:31:34;;;;;;;56.97;29.27;;;;;;;9.39;95.72;102855.50;5054119;28;20021;-67
2021/12/15 02:39:14;;;;;;;55.50;27.88;;;;;;;9.44;94.93;102846.44;5058089;28;20028;-67
2021/12/15 02:41:41;;;;;;;56.28;29.52;;;;;;;9.57;95.13;102851.38;5039478;28;20024;-68
2021/12/15 02:44:21;;;;;;;57.47;29.20;;;;;;;9.53;95.13;102859.53;5038741;28;20024;-69
2021/12/15 02:46:50;;;;;;;56.58;28.90;;;;;;;9.51;95.03;102853.66;5039260;28;20035;-68
2021/12/15 02:49:19;;;;;;;57.25;28.60;;;;;;;9.55;94.89;102858.47;5039953;28;20074;-68
2021/12/15 02:51:47;;;;;;;60.95;29.83;;;;;;;9.46;94.90;102865.19;5057417;28;20020;-69
2021/12/15 02:54:15;;;;;;;57.42;27.33;;;;;;;9.43;95.25;102854.31;5057594;28;20036;-67
2021/12/15 02:56:42;;;;;;;58.40;28.92;;;;;;;9.46;95.40;102856.63;5054699;28;20096;-67
2021/12/15 02:59:10;;;;;;;52.65;28.10;;;;;;;9.44;95.24;102854.19;5053847;28;20025;-66
2021/12/15 03:04:44;;;;;;;55.42;28.27;;;;;;;9.49;95.12;102857.22;5053984;28;20044;-67
2021/12/15 03:07:26;;;;;;;56.33;28.40;;;;;;;9.42;95.34;102861.22;5054436;28;20342;-66
2021/12/15 03:15:30;;;;;;;54.10;27.67;;;;;;;9.42;95.64;102852.69;5056229;28;20063;-68
2021/12/15 03:18:04;;;;;;;60.53;30.35;;;;;;;9.46;95.26;102870.34;5036216;28;20135;-67
2021/12/15 03:21:01;;;;;;;55.75;28.17;;;;;;;9.37;95.27;102847.06;5032931;28;20395;-67
2021/12/15 03:23:36;;;;;;;59.20;29.02;;;;;;;9.45;95.60;102860.97;5020865;28;20045;-68
2021/12/15 03:26:02;;;;;;;54.20;28.60;;;;;;;9.45;95.32;102866.13;5032749;28;20021;-68
2021/12/15 03:36:38;;;;;;;55.67;27.17;;;;;;;9.47;94.68;102848.75;5033678;28;20116;-66
2021/12/15 03:39:07;;;;;;;56.50;27.83;;;;;;;9.47;94.50;102859.09;5032259;28;20469;-67
2021/12/15 03:41:33;;;;;;;58.63;27.23;;;;;;;9.44;95.26;102871.44;5033280;28;20491;-67
2021/12/15 03:43:59;;;;;;;56.25;27.95;;;;;;;9.45;95.79;102862.75;5033254;28;20026;-67
2021/12/15 03:46:24;;;;;;;54.63;27.50;;;;;;;9.45;95.08;102863.56;5031944;28;20112;-66
2021/12/15 03:48:50;;;;;;;49.92;26.75;;;;;;;9.45;94.69;102866.13;5031988;28;20046;-67
2021/12/15 03:51:16;;;;;;;54.33;27.70;;;;;;;9.45;95.51;102865.31;5031810;28;20022;-66
2021/12/15 03:53:42;;;;;;;59.13;27.25;;;;;;;9.48;95.24;102867.66;5033130;28;20033;-67
2021/12/15 03:56:10;;;;;;;57.10;28.13;;;;;;;9.44;95.36;102864.50;5033366;28;20025;-66
2021/12/15 03:58:36;;;;;;;54.10;27.70;;;;;;;9.46;95.25;102872.91;5034734;28;20030;-66
2021/12/15 04:01:06;;;;;;;52.28;27.00;;;;;;;9.41;95.12;102867.34;5036799;28;20025;-67
2021/12/15 04:03:36;;;;;;;55.08;27.00;;;;;;;9.47;95.00;102871.19;5037556;28;20076;-67
2021/12/15 04:06:05;;;;;;;58.15;28.15;;;;;;;9.38;95.11;102854.72;5036799;28;20059;-67
2021/12/15 04:08:31;;;;;;;54.03;26.85;;;;;;;9.45;94.77;102868.72;5035445;28;20021;-67
2021/12/15 04:10:58;;;;;;;53.50;27.80;;;;;;;9.36;95.78;102866.91;5035382;28;20066;-67
2021/12/15 04:13:25;;;;;;;56.35;27.00;;;;;;;9.37;95.80;102870.31;5036623;28;20538;-67
2021/12/15 04:15:57;;;;;;;57.33;27.20;;;;;;;9.34;95.76;102876.53;5036569;28;20025;-67
2021/12/15 04:18:24;;;;;;;60.03;28.15;;;;;;;9.46;95.45;102880.66;5035317;28;20496;-66
2021/12/15 04:20:52;;;;;;;58.67;27.15;;;;;;;9.56;94.61;102879.91;5034949;28;20037;-66
2021/12/15 04:23:19;;;;;;;54.47;27.10;;;;;;;9.58;95.16;102878.84;5035149;28;20033;-67
2021/12/15 04:25:51;;;;;;;51.88;27.42;;;;;;;9.58;94.68;102880.59;5036412;28;20029;-67
2021/12/15 04:28:21;;;;;;;61.00;28.45;;;;;;;9.49;95.08;102879.59;5036400;28;20408;-67
2021/12/15 04:30:58;;;;;;;57.75;27.42;;;;;;;9.55;95.03;102891.16;5036286;28;20017;-67
2021/12/15 04:33:36;;;;;;;53.28;26.73;;;;;;;9.53;94.80;102891.31;5036882;28;20030;-67
2021/12/15 04:36:04;;;;;;;54.95;27.15;;;;;;;9.54;94.92;102874.06;5036823;28;20029;-67
2021/12/15 04:38:31;;;;;;;59.92;26.45;;;;;;;9.44;95.24;102880.00;5034965;28;20018;-67
2021/12/15 04:40:59;;;;;;;53.30;26.67;;;;;;;9.46;95.86;102885.00;5036262;28;20029;-67
2021/12/15 04:43:26;;;;;;;54.28;27.02;;;;;;;9.45;95.59;102891.94;5035945;28;20444;-67
2021/12/15 04:45:52;;;;;;;52.35;26.65;;;;;;;9.57;94.88;102887.53;5036015;28;20471;-67
2021/12/15 04:48:17;;;;;;;54.50;26.85;;;;;;;9.53;95.27;102893.09;5034642;28;20026;-67
2021/12/15 04:50:42;;;;;;;54.13;26.75;;;;;;;9.49;95.54;102882.16;5034677;28;20465;-67
2021/12/15 04:53:09;;;;;;;53.08;26.45;;;;;;;9.51;95.40;102897.53;5034630;28;20022;-65
2021/12/15 04:55:38;;;;;;;56.40;26.75;;;;;;;9.55;95.10;102889.44;5034445;28;20029;-68
2021/12/15 04:58:07;;;;;;;56.67;26.52;;;;;;;9.64;94.89;102901.56;5035764;28;20060;-66
2021/12/15 05:00:36;;;;;;;57.65;27.67;;;;;;;9.57;95.03;102902.19;5034493;28;20052;-65
2021/12/15 05:03:03;;;;;;;55.97;26.65;;;;;;;9.60;94.86;102899.34;5035611;28;20424;-66
2021/12/15 05:05:29;;;;;;;59.72;27.60;;;;;;;9.61;95.08;102895.81;5035613;28;20033;-67
2021/12/15 05:07:55;;;;;;;60.38;26.27;;;;;;;9.59;95.13;102906.28;5035341;28;20028;-67
2021/12/15 05:10:21;;;;;;;60.95;26.85;;;;;;;9.62;95.41;102911.19;5034237;28;20017;-67
2021/12/15 05:12:47;;;;;;;59.45;27.13;;;;;;;9.70;95.14;102903.63;5036037;28;20516;-67
2021/12/15 05:15:13;;;;;;;55.05;26.08;;;;;;;9.71;94.52;102907.03;5035464;28;20064;-66
2021/12/15 05:17:39;;;;;;;52.13;25.92;;;;;;;9.74;94.66;102904.19;5035339;28;20053;-67
2021/12/15 05:20:07;;;;;;;61.80;26.13;;;;;;;9.71;94.48;102900.09;5033830;28;20033;-67
2021/12/15 05:22:33;;;;;;;51.42;25.70;;;;;;;9.75;94.34;102905.81;5034077;28;20071;-67
2021/12/15 05:24:59;;;;;;;56.22;26.58;;;;;;;9.71;94.28;102904.44;5035303;28;20029;-67
2021/12/15 05:27:25;;;;;;;55.20;25.67;;;;;;;9.68;94.51;102902.94;5035166;28;20033;-67
2021/12/15 05:29:51;;;;;;;57.78;25.70;;;;;;;9.69;94.61;102904.56;5033876;28;20068;-67
2021/12/15 05:32:18;;;;;;;56.40;26.30;;;;;;;9.73;94.64;102899.16;5035359;28;20033;-67
2021/12/15 05:34:46;;;;;;;58.97;27.30;;;;;;;9.66;95.10;102906.56;5035339;28;20025;-67
2021/12/15 05:37:11;;;;;;;54.53;26.10;;;;;;;9.69;94.87;102909.72;5033756;28;20068;-67
2021/12/15 05:39:39;;;;;;;58.95;26.98;;;;;;;9.69;95.17;102896.81;5035405;28;20053;-66
2021/12/15 05:42:04;;;;;;;57.38;26.25;;;;;;;9.65;94.87;102902.38;5034910;28;20030;-66
2021/12/15 05:44:30;;;;;;;57.42;26.63;;;;;;;9.69;95.07;102896.00;5034838;28;20396;-67
2021/12/15 05:46:57;;;;;;;57.75;26.23;;;;;;;9.74;94.43;102904.19;5034709;28;20053;-66
2021/12/15 05:49:23;;;;;;;59.60;26.85;;;;;;;9.77;94.46;102908.28;5034738;28;20029;-66
2021/12/15 05:51:48;;;;;;;59.28;26.13;;;;;;;9.69;94.68;102916.66;5034737;28;20104;-67
2021/12/15 05:54:14;;;;;;;58.33;26.95;;;;;;;9.72;95.05;102916.38;5034580;28;20152;-65
2021/12/15 05:56:41;;;;;;;54.88;26.02;;;;;;;9.73;94.91;102915.47;5034618;28;20052;-66
2021/12/15 05:59:06;;;;;;;54.30;24.77;;;;;;;9.74;95.02;102922.25;5033266;28;20056;-66
2021/12/15 06:01:32;;;;;;;54.00;26.27;;;;;;;9.71;94.84;102907.03;5033522;28;20130;-67
2021/12/15 06:04:00;;;;;;;67.28;26.88;;;;;;;9.75;94.84;102917.91;5034822;28;20542;-66
2021/12/15 06:06:27;;;;;;;61.17;25.92;;;;;;;9.76;94.63;102920.38;5034775;28;20025;-65
2021/12/15 06:08:52;;;;;;;58.25;26.27;;;;;;;9.78;94.36;102915.06;5034324;28;20021;-65
2021/12/15 06:11:18;;;;;;;59.03;26.98;;;;;;;9.81;94.56;102922.53;5034822;28;20040;-67
2021/12/15 06:13:47;;;;;;;56.92;26.23;;;;;;;9.84;94.50;102922.28;5034632;28;20021;-67
2021/12/15 06:16:13;;;;;;;58.45;26.05;;;;;;;9.72;94.29;102918.97;5035176;28;20026;-68
2021/12/15 06:18:38;;;;;;;56.38;25.38;;;;;;;9.81;94.65;102923.38;5035973;28;20468;-67
2021/12/15 06:21:04;;;;;;;60.42;25.67;;;;;;;9.85;94.63;102919.59;5046438;28;20122;-67
2021/12/15 06:23:30;;;;;;;55.67;25.55;;;;;;;9.81;94.69;102917.38;5036220;28;20547;-66
2021/12/15 06:26:01;;;;;;;54.60;25.42;;;;;;;9.83;94.23;102924.06;5054069;28;20024;-66
2021/12/15 06:28:29;;;;;;;63.58;26.85;;;;;;;9.68;94.65;102925.34;5054009;28;20036;-66
2021/12/15 06:30:57;;;;;;;57.60;26.77;;;;;;;9.67;95.12;102921.16;5054040;28;20029;-66
2021/12/15 06:33:23;;;;;;;58.85;26.45;;;;;;;9.73;94.81;102928.38;5054074;28;20107;-67
2021/12/15 06:35:54;;;;;;;62.35;27.50;;;;;;;9.73;94.64;102920.63;5054587;28;20032;-67
2021/12/15 06:38:21;;;;;;;62.90;27.00;;;;;;;9.64;95.04;102919.63;5037267;28;20021;-66
2021/12/15 06:40:47;;;;;;;65.18;26.80;;;;;;;9.78;94.43;102925.38;5054990;28;20021;-69
2021/12/15 06:43:13;;;;;;;64.05;26.27;;;;;;;9.73;94.71;102930.94;5053983;28;20033;-66
2021/12/15 06:45:51;;;;;;;61.80;26.20;;;;;;;9.73;95.08;102928.38;5035854;28;20016;-67
2021/12/15 06:59:13;;;;;;;59.60;26.27;;;;;;;9.86;94.04;102941.88;5053463;28;20071;-67
2021/12/15 07:01:38;;;;;;;61.40;25.95;;;;;;;9.86;94.45;102941.06;5053491;28;20060;-67
2021/12/15 07:04:03;;;;;;;59.50;26.50;;;;;;;9.84;94.29;102948.94;5035552;28;20033;-68
2021/12/15 07:06:29;;;;;;;64.40;26.75;;;;;;;9.86;94.27;102953.97;5035547;28;20021;-67
2021/12/15 07:08:54;;;;;;;63.30;26.25;;;;;;;9.88;94.14;102952.91;5053474;28;20035;-67
2021/12/15 07:11:20;;;;;;;60.42;26.33;;;;;;;9.90;94.17;102957.94;5053612;28;20017;-66
2021/12/15 07:13:45;;;;;;;66.20;28.05;;;;;;;9.79;94.56;102953.69;5053638;28;20059;-66
2021/12/15 07:16:11;;;;;;;63.47;27.02;;;;;;;9.81;94.77;102961.28;5053196;28;20100;-67
2021/12/15 07:18:51;;;;;;;70.20;27.55;;;;;;;9.79;94.91;102965.78;5053265;28;20104;-65
2021/12/15 07:21:21;;;;;;;66.15;25.55;;;;;;;9.82;94.83;102968.09;5035248;28;20045;-66
2021/12/15 07:23:48;;;;;;;64.93;27.08;;;;;;;9.82;94.91;102957.75;5035505;28;20457;-66
2021/12/15 07:26:14;;;;;;;69.65;25.73;;;;;;;9.81;94.81;102956.94;5053161;28;20037;-67
2021/12/15 07:28:40;;;;;;;67.45;26.20;;;;;;;9.85;94.69;102952.34;5053104;28;20486;-66
2021/12/15 07:31:07;;;;;;;63.72;24.83;;;;;;;9.77;95.02;102960.72;5035959;28;20032;-67
2021/12/15 07:33:32;;;;;;;65.63;25.20;;;;;;;9.76;95.08;102953.13;5039435;28;20471;-67
2021/12/15 07:35:58;;;;;;;69.07;26.25;;;;;;;9.82;94.86;102960.34;5057214;28;20021;-65
2021/12/15 07:38:25;;;;;;;65.32;27.02;;;;;;;9.87;94.79;102963.38;5057154;28;20506;-66
2021/12/15 07:40:50;;;;;;;68.32;26.50;;;;;;;9.74;94.85;102955.81;5057033;28;20501;-67
2021/12/15 07:43:24;;;;;;;73.15;27.15;;;;;;;9.87;94.65;102965.94;5039226;28;20021;-67
2021/12/15 07:45:51;;;;;;;;;;;;;;;9.88;94.24;102963.22;5057625;28;20029;-65
2021/12/15 07:48:20;;;;;;;65.80;24.95;;;;;;;9.83;94.53;102967.94;5039013;28;20003;-67
2021/12/15 07:50:49;;;;;;;72.82;27.45;;;;;;;9.90;94.87;102976.03;5056791;28;20506;-66
2021/12/15 07:53:16;;;;;;;73.97;25.92;;;;;;;9.95;94.41;102955.78;5056802;28;20364;-66
2021/12/15 07:55:42;;;;;;;64.22;25.52;;;;;;;9.94;94.82;102978.19;5056739;28;20031;-66
2021/12/15 07:58:08;;;;;;;73.47;27.77;;;;;;;9.92;94.79;102968.94;5038897;28;20089;-66
2021/12/15 08:00:36;;;;;;;65.88;25.17;;;;;;;9.89;94.81;102964.84;5039246;28;20025;-67
2021/12/15 08:03:01;;;;;;;75.88;27.00;;;;;;;9.89;94.77;102975.19;5056902;28;20020;-67
2021/12/15 08:05:27;;;;;;;69.45;27.80;;;;;;;9.80;95.07;102952.72;5057235;28;20036;-69
2021/12/15 08:07:53;;;;;;;65.45;25.67;;;;;;;9.99;94.42;102975.25;5058228;28;20032;-67
2021/12/15 08:10:18;;;;;;;70.65;26.42;;;;;;;9.97;94.49;102971.97;5056652;28;20017;-66
2021/12/15 08:12:46;;;;;;;60.85;25.90;;;;;;;9.89;94.32;102966.63;5056458;28;20043;-66
2021/12/15 08:15:12;;;;;;;60.90;26.63;;;;;;;9.98;94.45;102975.34;5056731;28;20468;-67
2021/12/15 08:17:39;;;;;;;63.95;25.85;;;;;;;10.06;93.99;102973.75;5057265;28;20059;-67
2021/12/15 08:20:08;;;;;;;66.28;25.45;;;;;;;10.05;94.21;102976.50;5056532;28;20511;-69
2021/12/15 08:22:33;;;;;;;71.50;26.42;;;;;;;9.94;94.03;102964.47;5057677;28;20491;-71
2021/12/15 08:24:59;;;;;;;64.50;26.40;;;;;;;10.00;94.13;102981.22;5057662;28;20021;-66
2021/12/15 08:27:24;;;;;;;70.80;26.98;;;;;;;9.97;94.57;102977.13;5056222;28;20043;-66
2021/12/15 08:29:50;;;;;;;64.13;27.42;;;;;;;10.06;94.07;102986.69;5056709;28;20021;-66
2021/12/15 08:32:15;;;;;;;68.93;27.60;;;;;;;10.00;94.20;102981.22;5056347;28;20507;-66
2021/12/15 08:34:41;;;;;;;66.03;26.38;;;;;;;9.95;94.40;102989.34;5056283;28;20095;-65
2021/12/15 08:37:13;;;;;;;65.28;26.27;;;;;;;9.94;94.35;102993.69;5055899;28;20029;-65
2021/12/15 08:39:39;;;;;;;63.63;26.33;;;;;;;10.00;94.76;102994.94;5038032;28;20025;-66
2021/12/15 08:42:04;;;;;;;60.92;25.00;;;;;;;10.04;94.42;102995.50;5038012;28;20075;-65
2021/12/15 08:44:30;;;;;;;60.33;26.63;;;;;;;10.03;94.11;102993.88;5037276;28;20017;-65
2021/12/15 08:46:55;;;;;;;60.25;25.63;;;;;;;10.13;93.88;102992.97;5037870;28;20483;-66
2021/12/15 08:49:23;;;;;;;60.63;25.13;;;;;;;10.10;93.84;102995.00;5055743;28;20031;-66
2021/12/15 08:51:49;;;;;;;61.45;25.08;;;;;;;10.09;93.37;102988.19;5055719;28;20021;-66
2021/12/15 08:54:18;;;;;;;63.90;25.55;;;;;;;10.20;93.93;102992.47;5037824;28;20423;-66
2021/12/15 08:56:45;;;;;;;62.80;25.35;;;;;;;10.27;93.65;103002.19;5055649;28;20040;-66
2021/12/15 08:59:12;;;;;;;59.78;24.52;;;;;;;10.17;93.59;102983.19;5055851;28;20021;-66
2021/12/15 09:01:39;;;;;;;57.95;24.85;;;;;;;10.45;92.67;102996.38;5056428;28;20040;-67
2021/12/15 09:04:04;;;;;;;66.00;24.90;;;;;;;10.41;92.78;103000.97;5055760;28;20029;-66
2021/12/15 09:09:51;;;;;;;61.50;23.45;;;;;;;10.22;93.62;102996.56;5055699;28;20035;-67
2021/12/15 09:12:19;;;;;;;53.67;23.27;;;;;;;10.31;93.30;103000.16;5038058;28;20108;-65
2021/12/15 09:14:45;;;;;;;62.35;24.52;;;;;;;10.16;93.35;102990.13;5037558;28;20021;-66
2021/12/15 09:17:11;;;;;;;54.30;24.17;;;;;;;10.16;93.47;103005.63;5055333;28;20099;-66
2021/12/15 09:19:36;;;;;;;56.85;23.42;;;;;;;10.24;93.15;103004.16;5037122;28;20067;-66
2021/12/15 09:22:02;;;;;;;55.80;23.50;;;;;;;10.29;92.86;103020.13;5037392;28;20029;-65
2021/12/15 09:24:28;;;;;;;55.50;23.33;;;;;;;10.37;92.96;103013.34;5055216;28;20024;-65
2021/12/15 09:26:55;;;;;;;53.88;23.75;;;;;;;10.41;92.51;103015.69;5037263;28;20036;-66
2021/12/15 09:29:21;;;;;;;58.33;22.73;;;;;;;10.46;92.84;103014.34;5055059;28;20024;-66
2021/12/15 09:31:46;;;;;;;47.33;22.23;;;;;;;10.48;92.10;103021.97;5037123;28;20467;-66
2021/12/15 09:34:17;;;;;;;49.53;21.02;;;;;;;10.54;92.01;103016.28;5037107;28;20139;-67
2021/12/15 09:36:44;;;;;;;55.85;22.60;;;;;;;10.44;91.86;103018.00;5037926;28;20044;-67
2021/12/15 09:39:13;;;;;;;47.28;21.48;;;;;;;10.56;91.63;103016.97;5037050;28;20110;-69
2021/12/15 09:41:39;;;;;;;50.88;22.48;;;;;;;10.62;91.54;103019.03;5055327;28;20021;-66
2021/12/15 09:44:07;;;;;;;46.10;21.45;;;;;;;10.74;90.82;103022.31;5054941;28;20048;-66
2021/12/15 09:46:41;;;;;;;47.30;22.10;;;;;;;10.66;91.21;103020.38;5037401;28;20032;-66
2021/12/15 10:05:25;;;;;;;41.95;19.42;;;;;;;10.80;91.03;103039.88;5054253;28;20448;-66
2021/12/15 10:20:52;;;;;;;39.28;16.55;;;;;;;10.79;88.61;103051.19;5091180;28;20024;-45
2021/12/15 10:23:24;;;;;;;35.78;17.08;;;;;;;10.79;89.49;103046.81;5090772;28;20031;-45
2021/12/15 10:25:54;;;;;;;36.95;16.38;;;;;;;10.62;89.82;103039.72;5091486;28;20024;-45
2021/12/15 10:28:22;;;;;;;34.47;15.88;;;;;;;10.73;90.09;103049.09;5091019;28;20494;-45
2021/12/15 10:30:54;;;;;;;35.92;16.52;;;;;;;10.80;90.15;103048.44;5091178;28;20056;-44
2021/12/15 10:33:32;;;;;;;39.92;17.38;;;;;;;10.92;89.96;103056.91;5102923;22;20068;-66
2021/12/15 10:36:07;;;;;;;36.78;16.10;;;;;;;10.99;88.80;103052.00;5072935;28;20062;-69
2021/12/15 10:38:39;;;;;;;30.35;15.48;;;;;;;10.99;89.31;103047.69;5091274;28;20429;-67
2021/12/15 10:41:21;;;;;;;34.38;15.63;;;;;;;11.35;87.86;103041.97;5091019;28;20024;-66
2021/12/15 10:43:54;;;;;;;25.30;13.63;;;;;;;11.39;87.14;103046.72;5090726;28;20398;-67
2021/12/15 10:46:30;;;;;;;35.17;14.60;;;;;;;11.33;87.10;103049.88;5090563;28;20099;-67
2021/12/15 10:49:04;;;;;;;27.63;13.57;;;;;;;11.24;87.08;103054.09;5090956;28;20032;-67
2021/12/15 10:51:54;;;;;;;29.95;13.55;;;;;;;11.23;87.54;103060.22;5072404;28;20028;-67
2021/12/15 10:54:36;;;;;;;28.23;13.13;;;;;;;11.67;85.71;103054.63;5090580;28;20044;-66
2021/12/15 10:57:05;;;;;;;25.67;12.85;;;;;;;11.44;86.23;103057.50;5090460;28;20032;-67
2021/12/15 10:59:35;;;;;;;23.88;12.60;;;;;;;11.38;85.72;103054.66;5072502;28;20028;-68
2021/12/15 11:02:07;;;;;;;29.77;13.25;;;;;;;11.19;85.58;103033.00;5090826;28;20050;-66
2021/12/15 11:04:41;;;;;;;24.63;12.50;;;;;;;11.35;87.07;103057.50;5073053;28;20016;-65
2021/12/15 11:07:36;;;;;;;26.63;12.70;;;;;;;11.24;86.69;103048.91;5090277;28;20028;-66
2021/12/15 11:10:19;;;;;;;25.48;12.10;;;;;;;11.24;86.88;103054.09;5071910;28;20017;-65
2021/12/15 11:12:46;;;;;;;;;;;;;;;10.82;87.03;103028.47;5090389;28;20052;-65
2021/12/15 11:15:11;;;;;;;22.67;11.57;;;;;;;11.17;86.68;103054.78;5089799;28;19909;-66
2021/12/15 11:17:40;;;;;;;23.52;12.00;;;;;;;11.16;86.54;103053.94;5071543;28;20098;-66
2021/12/15 11:20:06;;;;;;;27.45;11.32;;;;;;;11.36;86.08;103059.13;5071629;28;20028;-67
2021/12/15 11:22:45;;;;;;;22.38;10.20;;;;;;;11.41;84.67;103059.53;5071590;28;20368;-67
2021/12/15 11:25:22;;;;;;;24.52;10.25;;;;;;;11.43;84.21;103057.66;5086401;28;20463;-67
2021/12/15 11:28:07;;;;;;;20.38;8.85;;;;;;;11.82;81.60;103058.41;5076199;28;20102;-67
2021/12/15 11:30:59;;;;;;;17.95;7.82;;;;;;;11.99;80.11;103056.09;5076255;28;20028;-66
2021/12/15 11:33:37;;;;;;;16.17;7.55;;;;;;;12.03;78.39;103058.28;5075727;28;20032;-66
2021/12/15 11:36:18;;;;;;;14.35;7.80;;;;;;;12.08;79.81;103050.06;5058216;28;20115;-67
2021/12/15 11:38:56;;;;;;;19.52;8.23;;;;;;;12.09;80.67;103055.09;5075968;28;20029;-67
2021/12/15 11:41:25;;;;;;;18.38;7.35;;;;;;;11.95;79.29;103053.78;5075860;28;20062;-68
2021/12/15 11:43:53;;;;;;;16.65;6.97;;;;;;;12.11;80.51;103055.78;5075980;28;20375;-67
2021/12/15 11:46:29;;;;;;;16.35;7.35;;;;;;;12.03;81.24;103060.88;5057786;28;20074;-68
2021/12/15 11:49:07;;;;;;;20.60;8.25;;;;;;;11.84;80.81;103050.50;5058097;28;20054;-67
2021/12/15 11:51:34;;;;;;;20.40;8.38;;;;;;;11.51;82.29;103048.25;5076044;28;20031;-68
2021/12/15 11:54:00;;;;;;;16.73;7.75;;;;;;;11.63;81.74;103050.69;5057771;28;20051;-68
2021/12/15 11:56:30;;;;;;;19.08;8.20;;;;;;;11.54;82.70;103052.34;5075752;28;20025;-69
2021/12/15 11:59:19;;;;;;;14.80;7.47;;;;;;;11.54;82.49;103041.97;5057692;28;20433;-67
2021/12/15 12:01:55;;;;;;;16.75;7.15;;;;;;;11.48;82.20;103050.28;5057139;28;20028;-68
2021/12/15 12:04:23;;;;;;;18.75;7.60;;;;;;;11.54;81.39;103023.84;5058323;28;20430;-68
2021/12/15 12:07:09;;;;;;;13.23;7.13;;;;;;;11.65;81.35;103044.41;5059867;28;20024;-73
2021/12/15 12:13:08;;;;;;;16.55;6.30;;;;;;;11.35;81.34;103027.25;5078498;28;20048;-71
2021/12/15 12:15:36;;;;;;;13.82;5.68;;;;;;;11.74;81.45;103047.94;5075619;28;20100;-67
2021/12/15 12:18:06;;;;;;;17.05;6.40;;;;;;;11.62;81.19;103036.91;5075749;28;20036;-66
2021/12/15 12:20:39;;;;;;;11.82;5.68;;;;;;;11.50;79.99;103025.06;5058061;28;20384;-68
2021/12/15 12:23:08;;;;;;;14.30;5.45;;;;;;;11.67;80.93;103037.31;5075540;28;20170;-68
2021/12/15 12:25:38;;;;;;;14.27;5.57;;;;;;;11.51;81.17;103040.47;5075243;28;20360;-69
2021/12/15 12:28:08;;;;;;;12.23;5.60;;;;;;;11.55;81.57;103035.00;5057177;28;20031;-70
2021/12/15 12:30:39;;;;;;;15.23;5.22;;;;;;;11.49;81.11;103028.63;5075157;28;20025;-71
2021/12/15 12:33:08;;;;;;;16.98;5.97;;;;;;;11.51;80.73;103022.34;5075319;28;20044;-69
2021/12/15 12:35:36;;;;;;;11.05;5.35;;;;;;;11.54;81.32;103029.03;5056941;28;20107;-69
2021/12/15 12:38:09;;;;;;;11.65;4.53;;;;;;;11.40;79.37;103032.84;5073870;28;20024;-70
2021/12/15 12:40:44;;;;;;;10.52;4.45;;;;;;;11.42;78.87;103030.94;5074871;28;20044;-67
2021/12/15 12:43:27;;;;;;;12.45;3.88;;;;;;;11.41;78.98;103034.47;5074848;28;20407;-66
2021/12/15 12:46:23;;;;;;;11.45;4.07;;;;;;;11.46;80.60;103037.47;5041026;28;20032;-68
2021/12/15 12:49:28;;;;;;;12.07;4.80;;;;;;;11.27;79.82;103011.59;5056945;28;20101;-68